createdAt,value
2023-01-08T05:27:17.589Z,171.6
2023-01-08T05:41:30.295Z,171
2023-01-08T05:55:37.219Z,170.2
2023-01-08T06:09:46.468Z,171.4
2023-01-08T06:23:59.706Z,172
2023-01-08T06:38:08.509Z,173.3
2023-01-08T06:52:20.226Z,172.9
2023-01-08T07:06:30.654Z,172.5
2023-01-08T07:20:40.177Z,175.6
2023-01-08T07:34:51.068Z,175
2023-01-08T07:49:07.912Z,176.6
2023-01-08T08:03:17.522Z,176.7
2023-01-08T08:17:31.383Z,176.8
2023-01-08T08:31:41.835Z,177.8
2023-01-08T08:45:52.588Z,179
2023-01-08T08:59:59.782Z,180.1
2023-01-08T09:14:08.902Z,180.2
2023-01-08T09:28:18.471Z,181.3
2023-01-08T09:42:25.881Z,181.5
2023-01-08T09:56:42.346Z,183
2023-01-08T10:10:45.673Z,183
2023-01-08T10:24:52.065Z,184.5
2023-01-08T10:39:02.454Z,184.6
2023-01-08T10:53:06.876Z,185.2
2023-01-08T11:07:17.561Z,186.2
2023-01-08T11:21:28.866Z,187.6
2023-01-08T11:35:38.288Z,188.6
2023-01-08T11:49:44.660Z,189.4
2023-01-08T12:03:54.316Z,192
2023-01-08T12:17:59.865Z,193.1
2023-01-08T12:32:06.905Z,193.1
2023-01-08T12:46:14.439Z,195.1
2023-01-08T13:00:25.549Z,196.5
2023-01-08T13:14:31.341Z,198.3
2023-01-08T13:28:46.157Z,202.4
2023-01-08T13:42:54.075Z,203.6
2023-01-08T13:57:02.745Z,206.4
2023-01-08T14:11:06.549Z,207.2
2023-01-08T14:25:21.403Z,208.7
2023-01-08T14:39:33.342Z,209.9
2023-01-08T14:53:41.144Z,209.7
2023-01-08T15:07:47.472Z,208.9
2023-01-08T15:21:59.673Z,209.7
2023-01-08T15:36:07.115Z,211.8
2023-01-08T15:50:18.510Z,213.1
2023-01-08T16:04:25.782Z,215
2023-01-08T16:18:36.447Z,217.1
2023-01-08T16:32:46.224Z,218.4
2023-01-08T16:46:57.954Z,218.4
2023-01-08T17:01:09.728Z,220
2023-01-08T17:15:22.077Z,222.5
2023-01-08T17:29:34.280Z,224.1
2023-01-08T17:43:45.810Z,225.7
2023-01-08T17:57:49.148Z,227
2023-01-08T18:12:00.420Z,228.4
2023-01-08T18:26:07.465Z,229
2023-01-08T18:40:19.843Z,230.4
2023-01-08T18:54:32.709Z,231.4
2023-01-08T19:08:45.205Z,233
2023-01-08T19:23:08.429Z,235.9
2023-01-08T19:37:19.177Z,238
2023-01-08T19:51:30.012Z,238.6
2023-01-08T20:05:37.668Z,240.5
2023-01-08T20:19:45.478Z,241.5
2023-01-08T20:33:49.829Z,240.9
2023-01-08T20:47:57.736Z,241.1
2023-01-08T21:02:04.391Z,244.2
2023-01-08T21:16:12.878Z,242.8
2023-01-08T21:30:23.482Z,239.7
2023-01-08T21:44:33.400Z,239.9
2023-01-08T21:58:44.217Z,239.1
2023-01-08T22:12:53.933Z,238.9
2023-01-08T22:27:05.608Z,239.6
2023-01-08T22:41:13.443Z,238.7
2023-01-08T22:55:23.866Z,237.4
2023-01-08T23:09:32.650Z,235.7
2023-01-08T23:23:41.103Z,235.3
2023-01-08T23:37:50.707Z,234.4
